Aleppo, Pennsylvania
Current Conditions -  °F | °C
As of 3:15 PM on Thursday 30 Oct 2014 (Local Time) from KAFJ Reporting Station
Overcast Overcast  
Wind Chill: 50°   Ceiling: 5000
Heat Index: 50°   Visibility: 10mi
Dew Point: 36°   Wind: 8mph
Humidity: 58%   Direction: 250°WSW
Pressure: 30.07"   Gusts: NA
Location:  39.82°N, 80.45°W
Report Text: KAFJ 301915Z AUTO 25007KT 10SM OVC050 10/02 A3007 RMK AO1
Loading
Personal Weather Stations






























Interactive Weather Map
Tropical Storm Tracking
New forecast layout! Learn more

10-Day Weather Forecast

Advertisements
Track Severe Weather on mobile